Mistral — TCCH — position and weather

sailwx.info

Track history (hours):
 
Tides and Currents Weather Stations Pressure Air Temp Water Temp Dewpoint Dewpoint Depression Visibility Wind Speed Wind Dir Waves Ship Positions

Mistral

Last reported at 2015-Aug-02 19:05 UTC. Time now 2015-Aug-04 03:26 UTC.
Position N 37°35' E 010°38'.

; draft 7 m.

Type: Cargo ship. MMSI: 271000615.

Date/timePositionNaut miles runAvg speedWind from/ knotsBaromVisibWave heightAir tempDewpointWater temp
2015-Aug-02 19:05N 37°35' E 010°38'4 8.2
2015-Aug-02 18:33N 37°34' E 010°44'17 8.5
2015-Aug-02 16:31N 37°29' E 011°05'8 8.9
2015-Aug-02 15:34N 37°26' E 011°15'9 9.3
2015-Aug-02 14:33N 37°22' E 011°25'10 9.6
2015-Aug-02 13:33N 37°18' E 011°36'10 9.5
2015-Aug-02 12:33N 37°14' E 011°47'9 9.4
2015-Aug-02 11:33N 37°09' E 011°57'9 8.9
2015-Aug-02 10:33N 37°05' E 012°07'9 9.3
2015-Aug-02 09:33N 37°03' E 012°19'9 9.0
2015-Aug-02 08:33N 37°01' E 012°30'10 9.6
2015-Aug-02 07:33N 36°59' E 012°41'9 9.4
2015-Aug-02 06:34N 36°57' E 012°53'9 9.3
2015-Aug-02 05:33N 36°55' E 013°04'9 9.3
2015-Aug-02 04:33N 36°52' E 013°15'9 9.0
2015-Aug-02 03:33N 36°49' E 013°26'9 8.8
2015-Aug-02 02:33N 36°46' E 013°36'9 9.1
2015-Aug-02 01:33N 36°44' E 013°47'10 9.4
2015-Aug-02 00:32N 36°41' E 013°59'9 9.3
2015-Aug-01 23:33N 36°38' E 014°10'10 9.7
2015-Aug-01 22:33N 36°35' E 014°21'10 9.7
2015-Aug-01 21:34N 36°31' E 014°32'9 9.3
2015-Aug-01 20:34N 36°29' E 014°43'9 9.3
2015-Aug-01 19:33N 36°29' E 014°55'9 9.4
2015-Aug-01 18:34N 36°29' E 015°06'14 9.4
2015-Aug-01 17:05N 36°28' E 015°24'5 9.5
2015-Aug-01 16:32N 36°29' E 015°30'9 9.3
2015-Aug-01 15:33N 36°29' E 015°41'22 9.4
2015-Aug-01 13:11N 36°29' E 016°09'6 9.8
2015-Aug-01 12:33N 36°29' E 016°17'1210.0
2015-Aug-01 11:22N 36°28' E 016°32'8 9.9
2015-Aug-01 10:33N 36°28' E 016°42'10 9.8
2015-Aug-01 09:32N 36°28' E 016°54'316 8.7
2015-Jul-30 21:17N 36°43' E 023°28'7 9.0
2015-Jul-30 20:33N 36°49' E 023°32'9 8.9
2015-Jul-30 19:32N 36°56' E 023°39'9 8.8
2015-Jul-30 18:33N 37°04' E 023°44'9 9.0
2015-Jul-30 17:33N 37°12' E 023°49'9 9.3
2015-Jul-30 16:33N 37°19' E 023°56'29 9.1
2015-Jul-30 13:21N 37°43' E 024°17'  
2015-Jul-27 00:13N 43°17' E 034°15'6 9.4
2015-Jul-26 23:33N 43°19' E 034°22'11 9.4
2015-Jul-26 22:21N 43°25' E 034°36'7 9.3
2015-Jul-26 21:34N 43°28' E 034°45'9 9.2
2015-Jul-26 20:34N 43°32' E 034°57'9 9.4
2015-Jul-26 19:33N 43°36' E 035°09'9 9.5
2015-Jul-26 18:34N 43°40' E 035°20'9 9.4
2015-Jul-26 17:34N 43°45' E 035°32'9 9.2
2015-Jul-26 16:34N 43°49' E 035°43'9 9.0
2015-Jul-26 15:34N 43°54' E 035°53'4 3.5
2015-Jul-26 14:33N 43°55' E 035°58'0 0.3
2015-Jul-26 13:34N 43°55' E 035°58'0 0.2
2015-Jul-26 12:34N 43°55' E 035°58'0 0.2
2015-Jul-26 11:33N 43°55' E 035°58'0 0.2
2015-Jul-26 10:34N 43°55' E 035°59'0 0.2
2015-Jul-26 09:34N 43°55' E 035°59'0 0.2
2015-Jul-26 08:32N 43°55' E 035°59'0 0.5
2015-Jul-26 07:33N 43°55' E 035°60'7 7.0
2015-Jul-26 06:34N 43°57' E 036°09'8 7.7
2015-Jul-26 05:33N 44°01' E 036°19'8 7.6
2015-Jul-26 04:33N 44°04' E 036°28'8 7.6
2015-Jul-26 03:33N 44°08' E 036°37'7 7.4
2015-Jul-26 02:33N 44°11' E 036°47'7 7.3
2015-Jul-26 01:33N 44°15' E 036°55'7 7.2
2015-Jul-26 00:33N 44°19' E 037°04'7 7.2
2015-Jul-25 23:33N 44°22' E 037°13'7 7.2
2015-Jul-25 22:33N 44°25' E 037°22'7 7.5
2015-Jul-25 21:33N 44°28' E 037°31'8 8.3
2015-Jul-25 20:33N 44°32' E 037°42'9 9.1
2015-Jul-25 19:33N 44°35' E 037°54'1 1.4
2015-Jul-25 18:33N 44°35' E 037°56'0 0.0
2015-Jul-25 17:33N 44°35' E 037°56'0 0.0
2015-Jul-25 16:33N 44°35' E 037°56'0 0.0
2015-Jul-25 15:33N 44°35' E 037°56'0 0.1
2015-Jul-25 14:33N 44°35' E 037°56'0 0.0
2015-Jul-25 13:33N 44°35' E 037°56'0 0.0
2015-Jul-25 12:33N 44°35' E 037°56'0 0.0
2015-Jul-25 11:33N 44°35' E 037°56'0 0.0
2015-Jul-25 10:33N 44°35' E 037°56'0 0.0
2015-Jul-25 09:33N 44°35' E 037°56'0 0.0
2015-Jul-25 08:33N 44°35' E 037°56'0 0.0
2015-Jul-25 07:33N 44°35' E 037°56'0 0.0
2015-Jul-25 06:33N 44°35' E 037°56'1 1.1
2015-Jul-25 05:33N 44°36' E 037°54'6 6.1
2015-Jul-25 04:33N 44°41' E 037°50'3 2.7
2015-Jul-25 03:31N 44°43' E 037°48'0 0.0
2015-Jul-25 02:31N 44°43' E 037°48'0 0.0
2015-Jul-25 01:31N 44°43' E 037°48'0 0.0
2015-Jul-25 00:31N 44°43' E 037°48'0 0.0
2015-Jul-24 23:31N 44°43' E 037°48'0 0.0
2015-Jul-24 22:31N 44°43' E 037°48'0 0.0
2015-Jul-24 21:31N 44°43' E 037°48'0 0.0
2015-Jul-24 20:31N 44°43' E 037°48'0 0.0
2015-Jul-24 19:31N 44°43' E 037°48'0 0.0
2015-Jul-24 18:31N 44°43' E 037°48'0 0.0
2015-Jul-24 17:31N 44°43' E 037°48'0 0.0
2015-Jul-24 16:31N 44°43' E 037°48'0 0.0
2015-Jul-24 15:31N 44°43' E 037°48'0 0.0
2015-Jul-24 14:31N 44°43' E 037°48'0 0.0
2015-Jul-24 13:31N 44°43' E 037°48'0 0.0
2015-Jul-24 12:31N 44°43' E 037°48'0 0.0
2015-Jul-24 11:31N 44°43' E 037°48'0 0.0
2015-Jul-24 10:31N 44°43' E 037°48'0 0.0
2015-Jul-24 09:31N 44°43' E 037°48'0 0.0
2015-Jul-24 08:31N 44°43' E 037°48'0 0.0
2015-Jul-24 07:31N 44°43' E 037°48'0 0.0
2015-Jul-24 06:31N 44°43' E 037°48'0 0.0
2015-Jul-24 05:31N 44°43' E 037°48'0 0.0
2015-Jul-24 04:31N 44°43' E 037°48'0 0.0
2015-Jul-24 03:31N 44°43' E 037°48'0 0.0
2015-Jul-24 02:31N 44°43' E 037°48'0 0.0
2015-Jul-24 01:31N 44°43' E 037°48'0 0.0
2015-Jul-24 00:31N 44°43' E 037°48'0 0.0
2015-Jul-23 23:31N 44°43' E 037°48'0 0.0
2015-Jul-23 22:31N 44°43' E 037°48'0 0.0
2015-Jul-23 21:28N 44°43' E 037°48'0 0.0
2015-Jul-23 20:31N 44°43' E 037°48'0 0.0
2015-Jul-23 19:31N 44°43' E 037°48'  
Track history (hours):
 
Tides and Currents Weather Stations Pressure Air Temp Water Temp Dewpoint Dewpoint Depression Visibility Wind Speed Wind Dir Waves Ship Positions

Mistral

Last reported at 2015-Aug-02 19:05 UTC. Time now 2015-Aug-04 03:26 UTC.
Position N 37°35' E 010°38'.

; draft 7 m.

Type: Cargo ship. MMSI: 271000615.

Date/timePositionNaut miles runAvg speedWind from/ knotsBaromVisibWave heightAir tempDewpointWater temp
2015-Aug-02 19:05N 37°35' E 010°38'4 8.2
2015-Aug-02 18:33N 37°34' E 010°44'17 8.5
2015-Aug-02 16:31N 37°29' E 011°05'8 8.9
2015-Aug-02 15:34N 37°26' E 011°15'9 9.3
2015-Aug-02 14:33N 37°22' E 011°25'10 9.6
2015-Aug-02 13:33N 37°18' E 011°36'10 9.5
2015-Aug-02 12:33N 37°14' E 011°47'9 9.4
2015-Aug-02 11:33N 37°09' E 011°57'9 8.9
2015-Aug-02 10:33N 37°05' E 012°07'9 9.3
2015-Aug-02 09:33N 37°03' E 012°19'9 9.0
2015-Aug-02 08:33N 37°01' E 012°30'10 9.6
2015-Aug-02 07:33N 36°59' E 012°41'9 9.4
2015-Aug-02 06:34N 36°57' E 012°53'9 9.3
2015-Aug-02 05:33N 36°55' E 013°04'9 9.3
2015-Aug-02 04:33N 36°52' E 013°15'9 9.0
2015-Aug-02 03:33N 36°49' E 013°26'9 8.8
2015-Aug-02 02:33N 36°46' E 013°36'9 9.1
2015-Aug-02 01:33N 36°44' E 013°47'10 9.4
2015-Aug-02 00:32N 36°41' E 013°59'9 9.3
2015-Aug-01 23:33N 36°38' E 014°10'10 9.7
2015-Aug-01 22:33N 36°35' E 014°21'10 9.7
2015-Aug-01 21:34N 36°31' E 014°32'9 9.3
2015-Aug-01 20:34N 36°29' E 014°43'9 9.3
2015-Aug-01 19:33N 36°29' E 014°55'9 9.4
2015-Aug-01 18:34N 36°29' E 015°06'14 9.4
2015-Aug-01 17:05N 36°28' E 015°24'5 9.5
2015-Aug-01 16:32N 36°29' E 015°30'9 9.3
2015-Aug-01 15:33N 36°29' E 015°41'22 9.4
2015-Aug-01 13:11N 36°29' E 016°09'6 9.8
2015-Aug-01 12:33N 36°29' E 016°17'1210.0
2015-Aug-01 11:22N 36°28' E 016°32'8 9.9
2015-Aug-01 10:33N 36°28' E 016°42'10 9.8
2015-Aug-01 09:32N 36°28' E 016°54'316 8.7
2015-Jul-30 21:17N 36°43' E 023°28'7 9.0
2015-Jul-30 20:33N 36°49' E 023°32'9 8.9
2015-Jul-30 19:32N 36°56' E 023°39'9 8.8
2015-Jul-30 18:33N 37°04' E 023°44'9 9.0
2015-Jul-30 17:33N 37°12' E 023°49'9 9.3
2015-Jul-30 16:33N 37°19' E 023°56'29 9.1
2015-Jul-30 13:21N 37°43' E 024°17'  
2015-Jul-27 00:13N 43°17' E 034°15'6 9.4
2015-Jul-26 23:33N 43°19' E 034°22'11 9.4
2015-Jul-26 22:21N 43°25' E 034°36'7 9.3
2015-Jul-26 21:34N 43°28' E 034°45'9 9.2
2015-Jul-26 20:34N 43°32' E 034°57'9 9.4
2015-Jul-26 19:33N 43°36' E 035°09'9 9.5
2015-Jul-26 18:34N 43°40' E 035°20'9 9.4
2015-Jul-26 17:34N 43°45' E 035°32'9 9.2
2015-Jul-26 16:34N 43°49' E 035°43'9 9.0
2015-Jul-26 15:34N 43°54' E 035°53'4 3.5
2015-Jul-26 14:33N 43°55' E 035°58'0 0.3
2015-Jul-26 13:34N 43°55' E 035°58'0 0.2
2015-Jul-26 12:34N 43°55' E 035°58'0 0.2
2015-Jul-26 11:33N 43°55' E 035°58'0 0.2
2015-Jul-26 10:34N 43°55' E 035°59'0 0.2
2015-Jul-26 09:34N 43°55' E 035°59'0 0.2
2015-Jul-26 08:32N 43°55' E 035°59'0 0.5
2015-Jul-26 07:33N 43°55' E 035°60'7 7.0
2015-Jul-26 06:34N 43°57' E 036°09'8 7.7
2015-Jul-26 05:33N 44°01' E 036°19'8 7.6
2015-Jul-26 04:33N 44°04' E 036°28'8 7.6
2015-Jul-26 03:33N 44°08' E 036°37'7 7.4
2015-Jul-26 02:33N 44°11' E 036°47'7 7.3
2015-Jul-26 01:33N 44°15' E 036°55'7 7.2
2015-Jul-26 00:33N 44°19' E 037°04'7 7.2
2015-Jul-25 23:33N 44°22' E 037°13'7 7.2
2015-Jul-25 22:33N 44°25' E 037°22'7 7.5
2015-Jul-25 21:33N 44°28' E 037°31'8 8.3
2015-Jul-25 20:33N 44°32' E 037°42'9 9.1
2015-Jul-25 19:33N 44°35' E 037°54'1 1.4
2015-Jul-25 18:33N 44°35' E 037°56'0 0.0
2015-Jul-25 17:33N 44°35' E 037°56'0 0.0
2015-Jul-25 16:33N 44°35' E 037°56'0 0.0
2015-Jul-25 15:33N 44°35' E 037°56'0 0.1
2015-Jul-25 14:33N 44°35' E 037°56'0 0.0
2015-Jul-25 13:33N 44°35' E 037°56'0 0.0
2015-Jul-25 12:33N 44°35' E 037°56'0 0.0
2015-Jul-25 11:33N 44°35' E 037°56'0 0.0
2015-Jul-25 10:33N 44°35' E 037°56'0 0.0
2015-Jul-25 09:33N 44°35' E 037°56'0 0.0
2015-Jul-25 08:33N 44°35' E 037°56'0 0.0
2015-Jul-25 07:33N 44°35' E 037°56'0 0.0
2015-Jul-25 06:33N 44°35' E 037°56'1 1.1
2015-Jul-25 05:33N 44°36' E 037°54'6 6.1
2015-Jul-25 04:33N 44°41' E 037°50'3 2.7
2015-Jul-25 03:31N 44°43' E 037°48'0 0.0
2015-Jul-25 02:31N 44°43' E 037°48'0 0.0
2015-Jul-25 01:31N 44°43' E 037°48'0 0.0
2015-Jul-25 00:31N 44°43' E 037°48'0 0.0
2015-Jul-24 23:31N 44°43' E 037°48'0 0.0
2015-Jul-24 22:31N 44°43' E 037°48'0 0.0
2015-Jul-24 21:31N 44°43' E 037°48'0 0.0
2015-Jul-24 20:31N 44°43' E 037°48'0 0.0
2015-Jul-24 19:31N 44°43' E 037°48'0 0.0
2015-Jul-24 18:31N 44°43' E 037°48'0 0.0
2015-Jul-24 17:31N 44°43' E 037°48'0 0.0
2015-Jul-24 16:31N 44°43' E 037°48'0 0.0
2015-Jul-24 15:31N 44°43' E 037°48'0 0.0
2015-Jul-24 14:31N 44°43' E 037°48'0 0.0
2015-Jul-24 13:31N 44°43' E 037°48'0 0.0
2015-Jul-24 12:31N 44°43' E 037°48'0 0.0
2015-Jul-24 11:31N 44°43' E 037°48'0 0.0
2015-Jul-24 10:31N 44°43' E 037°48'0 0.0
2015-Jul-24 09:31N 44°43' E 037°48'0 0.0
2015-Jul-24 08:31N 44°43' E 037°48'0 0.0
2015-Jul-24 07:31N 44°43' E 037°48'0 0.0
2015-Jul-24 06:31N 44°43' E 037°48'0 0.0
2015-Jul-24 05:31N 44°43' E 037°48'0 0.0
2015-Jul-24 04:31N 44°43' E 037°48'0 0.0
2015-Jul-24 03:31N 44°43' E 037°48'0 0.0
2015-Jul-24 02:31N 44°43' E 037°48'0 0.0
2015-Jul-24 01:31N 44°43' E 037°48'0 0.0
2015-Jul-24 00:31N 44°43' E 037°48'0 0.0
2015-Jul-23 23:31N 44°43' E 037°48'0 0.0
2015-Jul-23 22:31N 44°43' E 037°48'0 0.0
2015-Jul-23 21:28N 44°43' E 037°48'0 0.0
2015-Jul-23 20:31N 44°43' E 037°48'0 0.0
2015-Jul-23 19:31N 44°43' E 037°48'  

Dump ship's entire track history